createdAt,value
2019-01-03T00:01:42.487Z,-0.20
2019-01-03T00:04:33.511Z,-0.30
2019-01-03T00:07:30.806Z,-0.30
2019-01-03T00:10:18.724Z,-0.40
2019-01-03T00:13:22.141Z,-0.50
2019-01-03T00:16:09.179Z,-0.50
2019-01-03T00:19:00.187Z,-0.50
2019-01-03T00:21:49.839Z,-0.70
2019-01-03T00:24:37.858Z,-0.70
2019-01-03T00:27:24.813Z,-0.80
2019-01-03T00:30:22.080Z,-0.70
2019-01-03T00:33:15.160Z,-0.80
2019-01-03T00:36:09.226Z,-0.80
2019-01-03T00:38:55.789Z,-0.90
2019-01-03T00:41:38.816Z,-0.90
2019-01-03T00:44:29.832Z,-0.80
2019-01-03T00:47:12.328Z,-0.90
2019-01-03T00:49:59.099Z,-1.00
2019-01-03T00:52:55.748Z,-1.00
2019-01-03T00:55:43.814Z,-1.10
2019-01-03T00:58:30.454Z,-1.10
2019-01-03T01:01:14.567Z,-1.10
2019-01-03T01:04:02.575Z,-1.10
2019-01-03T01:06:49.410Z,-1.30
2019-01-03T01:09:52.841Z,-1.30
2019-01-03T01:12:49.998Z,-1.30
2019-01-03T01:15:34.348Z,-1.20
2019-01-03T01:18:40.613Z,-1.30
2019-01-03T01:21:28.636Z,-1.30
2019-01-03T01:24:15.678Z,-1.30
2019-01-03T01:27:08.417Z,-1.30
2019-01-03T01:29:56.428Z,-1.40
2019-01-03T01:32:50.572Z,-1.40
2019-01-03T01:35:38.819Z,-1.40
2019-01-03T01:38:25.600Z,-1.30
2019-01-03T01:41:18.443Z,-1.20
2019-01-03T01:44:05.143Z,-1.30
2019-01-03T01:46:52.247Z,-1.30
2019-01-03T01:49:33.154Z,-1.30
2019-01-03T01:52:20.242Z,-1.30
2019-01-03T01:55:15.355Z,-1.30
2019-01-03T01:58:12.750Z,-1.30
2019-01-03T02:01:09.682Z,-1.30
2019-01-03T02:07:26.825Z,-1.20
2019-01-03T02:10:07.362Z,-1.40
2019-01-03T02:12:56.969Z,-1.40
2019-01-03T02:15:44.067Z,-1.50
2019-01-03T02:18:37.912Z,-1.30
2019-01-03T02:21:29.132Z,-1.30
2019-01-03T02:24:09.541Z,-1.30
2019-01-03T02:26:57.669Z,-1.30
2019-01-03T02:29:44.553Z,-1.40
2019-01-03T02:32:31.442Z,-1.50
2019-01-03T02:35:25.638Z,-1.50
2019-01-03T02:38:14.692Z,-1.50
2019-01-03T02:40:59.704Z,-1.40
2019-01-03T02:43:50.449Z,-1.40
2019-01-03T02:46:50.491Z,-1.50
2019-01-03T02:49:39.429Z,-1.50
2019-01-03T02:52:26.260Z,-1.60
2019-01-03T02:55:12.430Z,-1.40
2019-01-03T02:58:18.945Z,-1.60
2019-01-03T03:01:04.997Z,-1.60
2019-01-03T03:03:47.481Z,-1.70
2019-01-03T03:06:24.080Z,-1.80
2019-01-03T03:09:18.268Z,-1.60
2019-01-03T03:12:17.894Z,-1.50
2019-01-03T03:15:21.180Z,-1.50
2019-01-03T03:18:09.059Z,-1.60
2019-01-03T03:20:57.037Z,-1.50
2019-01-03T03:23:39.778Z,-1.70
2019-01-03T03:26:37.021Z,-1.60
2019-01-03T03:29:26.176Z,-1.70
2019-01-03T03:32:20.370Z,-1.60
2019-01-03T03:35:02.281Z,-1.60
2019-01-03T03:37:49.092Z,-1.70
2019-01-03T03:40:36.699Z,-1.60
2019-01-03T03:43:40.449Z,-1.50
2019-01-03T03:46:27.558Z,-1.50
2019-01-03T03:49:08.206Z,-1.40
2019-01-03T03:52:11.105Z,-1.60
2019-01-03T03:54:59.053Z,-1.50
2019-01-03T03:57:47.261Z,-1.50
2019-01-03T04:00:41.174Z,-1.50
2019-01-03T04:03:27.841Z,-1.60
2019-01-03T04:06:16.813Z,-1.60
2019-01-03T04:09:11.421Z,-1.60
2019-01-03T04:12:17.753Z,-1.50
2019-01-03T04:15:11.658Z,-1.60
2019-01-03T04:17:50.621Z,-1.50
2019-01-03T04:20:41.589Z,-1.40
2019-01-03T04:23:38.711Z,-1.40
2019-01-03T04:26:25.289Z,-1.40
2019-01-03T04:29:10.881Z,-1.40
2019-01-03T04:32:02.125Z,-1.40
2019-01-03T04:34:55.699Z,-1.50
2019-01-03T04:37:55.877Z,-1.50
2019-01-03T04:40:49.549Z,-1.40
2019-01-03T04:43:31.559Z,-1.50
2019-01-03T04:46:25.541Z,-1.50
2019-01-03T04:49:06.556Z,-1.50
2019-01-03T04:52:03.335Z,-1.40
2019-01-03T04:54:50.429Z,-1.40
2019-01-03T04:57:44.325Z,-1.60
2019-01-03T05:00:31.231Z,-1.40
2019-01-03T05:03:18.810Z,-1.40
2019-01-03T05:05:58.834Z,-1.30
2019-01-03T05:08:45.788Z,-1.30
2019-01-03T05:11:47.739Z,-1.30
2019-01-03T05:14:34.474Z,-1.20
2019-01-03T05:17:25.610Z,-1.30
2019-01-03T05:20:12.477Z,-1.30
2019-01-03T05:22:59.550Z,-1.50
2019-01-03T05:25:41.433Z,-1.50
2019-01-03T05:28:38.509Z,-1.60
2019-01-03T05:31:25.645Z,-1.60
2019-01-03T05:34:22.998Z,-1.60
2019-01-03T05:37:10.958Z,-1.60
2019-01-03T05:39:57.699Z,-1.30
2019-01-03T05:42:39.957Z,-1.30
2019-01-03T05:45:35.904Z,-1.30
2019-01-03T05:48:35.921Z,-1.20
2019-01-03T05:51:33.513Z,-1.30
2019-01-03T05:54:20.491Z,-1.30
2019-01-03T05:57:07.512Z,-1.30
2019-01-03T05:59:54.341Z,-1.40
2019-01-03T06:02:41.238Z,-1.40
2019-01-03T06:05:23.645Z,-1.40
2019-01-03T06:08:10.257Z,-1.40
2019-01-03T06:10:53.291Z,-1.40
2019-01-03T06:13:35.671Z,-1.30
2019-01-03T06:16:22.731Z,-1.30
2019-01-03T06:19:21.801Z,-1.30
2019-01-03T06:22:11.577Z,-1.20
2019-01-03T06:25:05.567Z,-1.20
2019-01-03T06:27:52.280Z,-1.10
2019-01-03T06:30:39.094Z,-1.20
2019-01-03T06:33:18.328Z,-1.20
2019-01-03T06:36:22.317Z,-1.10
2019-01-03T06:39:22.729Z,-1.10
2019-01-03T06:42:10.019Z,-1.30
2019-01-03T06:44:56.948Z,-1.50
2019-01-03T06:47:54.116Z,-1.60
2019-01-03T06:50:38.042Z,-1.70
2019-01-03T06:53:25.998Z,-1.80
2019-01-03T06:56:32.225Z,-1.90
2019-01-03T06:59:19.038Z,-2.00
2019-01-03T07:02:13.513Z,-2.00
2019-01-03T07:05:00.283Z,-2.00
2019-01-03T07:08:02.814Z,-2.00
2019-01-03T07:10:43.294Z,-2.10
2019-01-03T07:13:43.724Z,-2.10
2019-01-03T07:16:32.754Z,-2.10
2019-01-03T07:19:29.833Z,-2.10
2019-01-03T07:22:16.655Z,-1.90
2019-01-03T07:25:05.158Z,-1.90
2019-01-03T07:28:06.562Z,-1.90
2019-01-03T07:31:09.547Z,-1.70
2019-01-03T07:33:57.738Z,-1.70
2019-01-03T07:36:44.385Z,-1.60
2019-01-03T07:39:41.218Z,-1.70
2019-01-03T07:42:32.331Z,-1.90
2019-01-03T07:45:29.266Z,-2.00
2019-01-03T07:51:55.252Z,-1.90
2019-01-03T07:54:58.446Z,-1.90
2019-01-03T07:57:52.568Z,-1.80
2019-01-03T08:00:40.614Z,-1.70
2019-01-03T08:03:27.198Z,-1.80
2019-01-03T08:06:11.973Z,-1.70
2019-01-03T08:08:59.008Z,-1.50
2019-01-03T08:11:46.989Z,-1.50
2019-01-03T08:14:37.557Z,-1.40
2019-01-03T08:17:28.641Z,-1.40
2019-01-03T08:20:10.377Z,-1.40
2019-01-03T08:23:01.902Z,-1.20
2019-01-03T08:25:44.516Z,-1.30
2019-01-03T08:28:42.101Z,-1.20
2019-01-03T08:31:28.713Z,-1.20
2019-01-03T08:34:19.725Z,-1.20
2019-01-03T08:37:23.371Z,-1.30
2019-01-03T08:40:20.525Z,-1.20
2019-01-03T08:43:27.982Z,-1.30
2019-01-03T08:46:16.238Z,-1.10
2019-01-03T08:49:03.111Z,-1.20
2019-01-03T08:51:52.945Z,-1.20
2019-01-03T08:54:30.328Z,-1.20
2019-01-03T08:57:25.437Z,-1.10
2019-01-03T09:00:26.967Z,-1.20
2019-01-03T09:03:22.405Z,-1.20
2019-01-03T09:06:25.637Z,-1.20
2019-01-03T09:09:16.616Z,-1.10
2019-01-03T09:11:54.837Z,-1.00
2019-01-03T09:14:41.581Z,-1.00
2019-01-03T09:17:28.324Z,-0.80
2019-01-03T09:20:29.659Z,-0.70
2019-01-03T09:23:20.394Z,-0.70
2019-01-03T09:26:15.066Z,-0.40
2019-01-03T09:29:03.554Z,-0.40
2019-01-03T09:32:09.680Z,-0.30
2019-01-03T09:35:06.689Z,-0.20
2019-01-03T09:37:57.852Z,-0.40
2019-01-03T09:40:44.450Z,-0.30
2019-01-03T09:43:32.018Z,-0.20
2019-01-03T09:46:01.285Z,-0.20
2019-01-03T09:48:30.185Z,-0.30
2019-01-03T09:50:59.508Z,-0.40
2019-01-03T09:53:28.637Z,-0.40
2019-01-03T09:55:57.571Z,-0.50
2019-01-03T09:58:26.507Z,-0.40
2019-01-03T10:00:55.521Z,-0.20
2019-01-03T10:03:28.501Z,-0.20
2019-01-03T10:05:57.366Z,-0.20
2019-01-03T10:08:26.576Z,-0.10
2019-01-03T10:10:55.706Z,-0.10
2019-01-03T10:13:25.693Z,-0.10
2019-01-03T10:15:54.881Z,-0.10
2019-01-03T10:18:23.769Z,0.00
2019-01-03T10:20:52.773Z,0.10
2019-01-03T10:23:21.786Z,0.10
2019-01-03T10:25:50.921Z,0.20
2019-01-03T10:28:19.869Z,0.20
2019-01-03T10:30:49.115Z,0.20
2019-01-03T10:33:18.165Z,0.30
2019-01-03T10:35:47.145Z,0.40
2019-01-03T10:38:20.928Z,0.60
2019-01-03T10:40:46.814Z,0.60
2019-01-03T10:43:15.722Z,0.70
2019-01-03T10:45:44.608Z,0.70
2019-01-03T10:48:13.818Z,0.70
2019-01-03T10:50:42.801Z,0.80
2019-01-03T10:53:12.028Z,0.80
2019-01-03T10:55:41.122Z,0.80
2019-01-03T10:58:10.083Z,0.80
2019-01-03T11:00:39.077Z,0.90
2019-01-03T11:03:08.086Z,1.00
2019-01-03T11:05:36.937Z,1.00
2019-01-03T11:08:05.941Z,1.20
2019-01-03T11:10:35.005Z,1.00
2019-01-03T11:13:04.957Z,1.10
2019-01-03T11:15:33.823Z,0.90
2019-01-03T11:18:02.661Z,0.90
2019-01-03T11:20:31.532Z,1.00
2019-01-03T11:23:00.422Z,1.00
2019-01-03T11:25:29.353Z,1.10
2019-01-03T11:27:58.493Z,1.20
2019-01-03T11:30:27.444Z,1.30
2019-01-03T11:32:58.434Z,1.30
2019-01-03T11:35:27.265Z,1.40
2019-01-03T11:37:56.197Z,1.40
2019-01-03T11:40:25.197Z,1.40
2019-01-03T11:42:54.263Z,1.40
2019-01-03T11:45:23.207Z,1.40
2019-01-03T11:47:52.043Z,1.40
2019-01-03T11:50:20.953Z,1.40
2019-01-03T11:52:49.812Z,1.50
2019-01-03T11:55:18.757Z,1.50
2019-01-03T11:57:47.806Z,1.60
2019-01-03T12:00:16.941Z,1.50
2019-01-03T12:02:45.793Z,1.40
2019-01-03T12:05:15.361Z,1.50
2019-01-03T12:07:44.249Z,1.40
2019-01-03T12:10:14.566Z,1.50
2019-01-03T12:12:43.406Z,1.50
2019-01-03T12:15:12.432Z,1.50
2019-01-03T12:17:41.616Z,1.50
2019-01-03T12:20:10.616Z,1.50
2019-01-03T12:22:39.532Z,1.60
2019-01-03T12:25:08.725Z,1.50
2019-01-03T12:27:38.010Z,1.60
2019-01-03T12:30:09.635Z,1.50
2019-01-03T12:32:38.497Z,1.50
2019-01-03T12:35:08.061Z,1.50
2019-01-03T12:37:37.008Z,1.60
2019-01-03T12:40:06.740Z,1.60
2019-01-03T12:42:36.789Z,1.60
2019-01-03T12:45:06.480Z,1.70
2019-01-03T12:47:35.496Z,1.70
2019-01-03T12:50:05.167Z,1.60
2019-01-03T12:52:34.014Z,1.50
2019-01-03T12:55:02.884Z,1.50
2019-01-03T12:57:31.737Z,1.50
2019-01-03T13:00:00.717Z,1.50
2019-01-03T13:02:32.147Z,1.40
2019-01-03T13:05:01.597Z,1.40
2019-01-03T13:07:30.461Z,1.40
2019-01-03T13:09:59.450Z,1.50
2019-01-03T13:12:28.928Z,1.60
2019-01-03T13:14:57.872Z,1.50
2019-01-03T13:17:32.943Z,1.60
2019-01-03T13:20:01.764Z,1.50
2019-01-03T13:22:30.706Z,1.50
2019-01-03T13:24:59.667Z,1.20
2019-01-03T13:27:28.971Z,1.20
2019-01-03T13:29:58.005Z,1.10
2019-01-03T13:32:27.290Z,1.10
2019-01-03T13:34:56.191Z,1.10
2019-01-03T13:37:25.176Z,1.10
2019-01-03T13:39:54.078Z,1.10
2019-01-03T13:42:22.945Z,1.10
2019-01-03T13:44:51.777Z,1.00
2019-01-03T13:47:20.709Z,1.00
2019-01-03T13:49:49.627Z,1.10
2019-01-03T13:52:19.549Z,1.20
2019-01-03T13:54:48.565Z,1.10
2019-01-03T13:57:17.463Z,1.00
2019-01-03T13:59:46.390Z,1.00
2019-01-03T14:02:15.283Z,1.00
2019-01-03T14:04:44.201Z,1.00
2019-01-03T14:07:13.042Z,0.90
2019-01-03T14:09:41.960Z,0.90
2019-01-03T14:12:10.931Z,0.80
2019-01-03T14:14:39.853Z,0.90
2019-01-03T14:17:08.831Z,0.90
2019-01-03T14:19:37.706Z,1.10
2019-01-03T14:22:06.816Z,1.00
2019-01-03T14:24:35.809Z,0.90
2019-01-03T14:27:04.876Z,1.00
2019-01-03T14:29:33.728Z,0.90
2019-01-03T14:32:04.573Z,1.00
2019-01-03T14:34:34.541Z,1.00
2019-01-03T14:37:03.429Z,1.00
2019-01-03T14:39:32.637Z,1.00
2019-01-03T14:42:01.454Z,0.90
2019-01-03T14:44:30.288Z,0.80
2019-01-03T14:46:59.201Z,0.90
2019-01-03T14:49:28.485Z,0.90
2019-01-03T14:51:57.635Z,0.90
2019-01-03T14:54:26.509Z,0.90
2019-01-03T14:56:55.378Z,1.00
2019-01-03T14:59:24.465Z,1.00
2019-01-03T15:01:53.677Z,1.00
2019-01-03T15:04:22.520Z,1.10
2019-01-03T15:06:51.398Z,1.00
2019-01-03T15:09:20.298Z,1.10
2019-01-03T15:11:49.129Z,0.90
2019-01-03T15:14:18.216Z,1.00
2019-01-03T15:16:47.058Z,1.00
2019-01-03T15:19:15.994Z,1.00
2019-01-03T15:21:44.817Z,0.90
2019-01-03T15:24:14.004Z,0.80
2019-01-03T15:26:42.805Z,0.70
2019-01-03T15:29:11.717Z,0.80
2019-01-03T15:31:40.636Z,0.80
2019-01-03T15:34:09.701Z,0.80
2019-01-03T15:36:38.652Z,0.70
2019-01-03T15:39:07.977Z,0.50
2019-01-03T15:41:37.186Z,0.50
2019-01-03T15:44:06.100Z,0.80
2019-01-03T15:46:35.201Z,0.60
2019-01-03T15:49:04.093Z,0.60
2019-01-03T15:51:32.916Z,0.50
2019-01-03T15:54:01.712Z,0.40
2019-01-03T15:56:30.561Z,0.30
2019-01-03T15:58:59.395Z,0.30
2019-01-03T16:01:28.668Z,0.40
2019-01-03T16:03:57.550Z,1.80
2019-01-03T16:06:26.786Z,2.10
2019-01-03T16:08:55.585Z,2.40
2019-01-03T16:11:24.509Z,2.10
2019-01-03T16:13:53.588Z,2.30
2019-01-03T16:16:22.439Z,2.20
2019-01-03T16:18:51.275Z,2.60
2019-01-03T16:21:20.535Z,2.20
2019-01-03T16:23:49.679Z,2.50
2019-01-03T16:26:18.585Z,1.90
2019-01-03T16:28:47.583Z,2.30
2019-01-03T16:31:16.602Z,2.80
2019-01-03T16:33:47.175Z,2.30
2019-01-03T16:36:16.114Z,2.40
2019-01-03T16:38:45.310Z,2.90
2019-01-03T16:41:17.137Z,3.10
2019-01-03T16:43:46.017Z,2.90
2019-01-03T16:46:15.109Z,2.10
2019-01-03T16:48:44.077Z,2.50
2019-01-03T16:51:12.995Z,2.90
2019-01-03T16:53:42.069Z,2.80
2019-01-03T16:56:10.979Z,2.40
2019-01-03T16:58:40.057Z,2.40
2019-01-03T17:01:08.947Z,2.40
2019-01-03T17:03:38.195Z,2.80
2019-01-03T17:06:07.101Z,2.60
2019-01-03T17:08:36.055Z,2.30
2019-01-03T17:11:05.605Z,2.60
2019-01-03T17:13:34.702Z,2.30
2019-01-03T17:16:03.618Z,2.50
2019-01-03T17:18:32.899Z,2.50
2019-01-03T17:21:01.749Z,2.70
2019-01-03T17:23:30.915Z,2.90
2019-01-03T17:26:00.035Z,2.80
2019-01-03T17:28:28.908Z,2.70
2019-01-03T17:30:57.751Z,2.50
2019-01-03T17:33:26.784Z,2.60
2019-01-03T17:35:55.931Z,2.40
2019-01-03T17:38:24.857Z,1.80
2019-01-03T17:40:53.684Z,2.20
2019-01-03T17:43:22.929Z,2.60
2019-01-03T17:45:52.201Z,2.30
2019-01-03T17:48:21.069Z,1.70
2019-01-03T17:50:49.997Z,2.10
2019-01-03T17:53:19.238Z,2.20
2019-01-03T17:55:48.237Z,2.10
2019-01-03T17:58:17.144Z,2.40
2019-01-03T18:00:47.293Z,2.30
2019-01-03T18:03:16.254Z,2.20
2019-01-03T18:05:45.254Z,2.30
2019-01-03T18:08:14.130Z,2.30
2019-01-03T18:10:43.962Z,2.60
2019-01-03T18:13:16.094Z,2.20
2019-01-03T18:15:44.998Z,2.10
2019-01-03T18:18:13.919Z,2.10
2019-01-03T18:20:42.884Z,2.40
2019-01-03T18:23:11.907Z,2.60
2019-01-03T18:25:40.976Z,2.40
2019-01-03T18:28:10.151Z,2.20
2019-01-03T18:30:39.169Z,2.60
2019-01-03T18:33:09.574Z,2.60
2019-01-03T18:35:38.496Z,2.50
2019-01-03T18:38:07.555Z,2.80
2019-01-03T18:40:37.525Z,2.90
2019-01-03T18:43:08.630Z,2.90
2019-01-03T18:45:37.905Z,3.00
2019-01-03T18:48:06.959Z,3.10
2019-01-03T18:50:35.893Z,3.10
2019-01-03T18:53:04.894Z,3.00
2019-01-03T18:55:33.887Z,2.90
2019-01-03T18:58:02.986Z,2.90
2019-01-03T19:00:31.910Z,2.90
2019-01-03T19:03:01.389Z,2.90
2019-01-03T19:05:30.290Z,3.00
2019-01-03T19:07:59.255Z,2.90
2019-01-03T19:10:28.483Z,2.50
2019-01-03T19:12:57.846Z,2.00
2019-01-03T19:15:26.942Z,1.50
2019-01-03T19:17:55.791Z,1.20
2019-01-03T19:20:25.092Z,1.00
2019-01-03T19:22:54.151Z,1.00
2019-01-03T19:25:23.155Z,1.10
2019-01-03T19:27:52.114Z,1.20
2019-01-03T19:30:21.156Z,1.10
2019-01-03T19:32:50.077Z,0.90
2019-01-03T19:35:19.035Z,0.90
2019-01-03T19:37:48.096Z,0.60
2019-01-03T19:40:17.189Z,0.80
2019-01-03T19:42:47.626Z,0.90
2019-01-03T19:45:16.816Z,1.00
2019-01-03T19:47:45.861Z,1.00
2019-01-03T19:50:18.383Z,1.10
2019-01-03T19:52:47.429Z,0.90
2019-01-03T19:55:16.486Z,0.90
2019-01-03T19:57:45.459Z,0.80
2019-01-03T20:00:15.814Z,0.70
2019-01-03T20:02:44.859Z,0.60
2019-01-03T20:05:13.993Z,0.70
2019-01-03T20:07:43.205Z,0.80
2019-01-03T20:10:12.750Z,0.70
2019-01-03T20:12:41.692Z,0.70
2019-01-03T20:15:11.785Z,0.80
2019-01-03T20:17:40.792Z,0.70
2019-01-03T20:20:10.029Z,0.60
2019-01-03T20:22:39.084Z,0.60
2019-01-03T20:25:08.914Z,0.60
2019-01-03T20:27:37.962Z,0.60
2019-01-03T20:30:07.352Z,0.60
2019-01-03T20:32:36.386Z,0.60
2019-01-03T20:35:05.716Z,0.70
2019-01-03T20:37:34.657Z,0.70
2019-01-03T20:40:06.453Z,0.60
2019-01-03T20:42:41.163Z,0.70
2019-01-03T20:45:11.769Z,0.80
2019-01-03T20:47:40.816Z,0.60
2019-01-03T20:50:10.259Z,0.70
2019-01-03T20:52:39.199Z,0.80
2019-01-03T20:55:08.455Z,0.90
2019-01-03T20:57:37.402Z,0.90
2019-01-03T21:00:08.346Z,0.90
2019-01-03T21:02:37.594Z,0.80
2019-01-03T21:05:08.751Z,0.80
2019-01-03T21:07:37.854Z,0.60
2019-01-03T21:10:08.815Z,0.60
2019-01-03T21:12:37.759Z,0.60
2019-01-03T21:15:08.791Z,0.50
2019-01-03T21:17:37.797Z,0.60
2019-01-03T21:20:08.632Z,0.60
2019-01-03T21:22:37.692Z,0.50
2019-01-03T21:25:08.130Z,0.50
2019-01-03T21:27:37.107Z,0.30
2019-01-03T21:30:10.489Z,0.30
2019-01-03T21:32:39.499Z,0.20
2019-01-03T21:35:08.411Z,0.40
2019-01-03T21:37:37.472Z,0.50
2019-01-03T21:40:07.969Z,0.50
2019-01-03T21:42:37.012Z,0.40
2019-01-03T21:45:06.100Z,0.30
2019-01-03T21:47:35.098Z,0.50
2019-01-03T21:50:04.818Z,0.50
2019-01-03T21:52:35.955Z,0.60
2019-01-03T21:55:05.671Z,0.70
2019-01-03T21:57:34.691Z,0.80
2019-01-03T22:00:03.963Z,0.80
2019-01-03T22:02:32.911Z,0.60
2019-01-03T22:05:01.852Z,0.50
2019-01-03T22:07:30.774Z,0.60
2019-01-03T22:09:59.786Z,0.70
2019-01-03T22:12:30.766Z,0.60
2019-01-03T22:14:59.774Z,0.80
2019-01-03T22:17:28.648Z,0.80
2019-01-03T22:19:57.624Z,0.90
2019-01-03T22:22:27.019Z,0.90
2019-01-03T22:24:56.010Z,0.80
2019-01-03T22:27:24.863Z,0.80
2019-01-03T22:29:54.423Z,0.90
2019-01-03T22:32:23.569Z,0.90
2019-01-03T22:34:52.427Z,1.00
2019-01-03T22:37:21.343Z,0.90
2019-01-03T22:39:50.294Z,0.90
2019-01-03T22:42:20.371Z,1.00
2019-01-03T22:44:49.314Z,1.10
2019-01-03T22:47:23.189Z,1.10
2019-01-03T22:49:57.938Z,1.10
2019-01-03T22:52:26.974Z,1.10
2019-01-03T22:54:57.306Z,1.10
2019-01-03T22:57:27.717Z,1.10
2019-01-03T22:59:59.247Z,1.10
2019-01-03T23:02:32.835Z,1.10
2019-01-03T23:05:02.162Z,1.10
2019-01-03T23:07:31.308Z,1.20
2019-01-03T23:10:02.386Z,1.10
2019-01-03T23:12:34.469Z,1.00
2019-01-03T23:15:05.538Z,1.10
2019-01-03T23:17:34.487Z,1.10
2019-01-03T23:20:13.651Z,1.10
2019-01-03T23:22:42.700Z,1.10
2019-01-03T23:25:11.766Z,1.20
2019-01-03T23:27:40.725Z,1.10
2019-01-03T23:30:09.723Z,1.20
2019-01-03T23:32:38.622Z,1.20
2019-01-03T23:35:07.644Z,1.20
2019-01-03T23:37:36.482Z,1.20
2019-01-03T23:40:05.711Z,1.10
2019-01-03T23:42:34.709Z,1.20
2019-01-03T23:45:15.204Z,1.30
2019-01-03T23:47:44.485Z,1.10
2019-01-03T23:50:15.830Z,1.10
2019-01-03T23:52:44.806Z,0.90
2019-01-03T23:55:13.817Z,0.80
2019-01-03T23:57:42.883Z,0.90
